sensor_id;sensor_type;location;lat;lon;timestamp;pressure;altitude;pressure_sealevel;temperature;humidity
10806;BME280;5455;53.224;6.000;2023-04-01T00:00:25;99145.84;;;10.23;100.00
10806;BME280;5455;53.224;6.000;2023-04-01T00:02:52;99140.31;;;10.20;100.00
10806;BME280;5455;53.224;6.000;2023-04-01T00:05:19;99150.16;;;10.21;100.00
10806;BME280;5455;53.224;6.000;2023-04-01T00:07:47;99143.88;;;10.20;100.00
10806;BME280;5455;53.224;6.000;2023-04-01T00:10:14;99147.41;;;10.24;100.00
10806;BME280;5455;53.224;6.000;2023-04-01T00:12:41;99152.13;;;10.24;100.00
10806;BME280;5455;53.224;6.000;2023-04-01T00:15:09;99151.72;;;10.25;100.00
10806;BME280;5455;53.224;6.000;2023-04-01T00:17:37;99152.13;;;10.24;100.00
10806;BME280;5455;53.224;6.000;2023-04-01T00:20:06;99156.06;;;10.26;100.00
10806;BME280;5455;53.224;6.000;2023-04-01T00:22:34;99154.88;;;10.27;100.00
10806;BME280;5455;53.224;6.000;2023-04-01T00:25:02;99156.06;;;10.26;100.00
10806;BME280;5455;53.224;6.000;2023-04-01T00:27:29;99150.13;;;10.28;100.00
10806;BME280;5455;53.224;6.000;2023-04-01T00:29:57;99146.19;;;10.29;100.00
10806;BME280;5455;53.224;6.000;2023-04-01T00:32:26;99154.47;;;10.29;100.00
10806;BME280;5455;53.224;6.000;2023-04-01T00:34:54;99155.25;;;10.29;100.00
10806;BME280;5455;53.224;6.000;2023-04-01T00:37:20;99150.94;;;10.25;100.00
10806;BME280;5455;53.224;6.000;2023-04-01T00:39:47;99148.16;;;10.25;100.00
10806;BME280;5455;53.224;6.000;2023-04-01T00:42:15;99151.72;;;10.25;100.00
10806;BME280;5455;53.224;6.000;2023-04-01T00:44:44;99149.38;;;10.24;100.00
10806;BME280;5455;53.224;6.000;2023-04-01T00:47:11;99155.66;;;10.24;100.00
10806;BME280;5455;53.224;6.000;2023-04-01T00:49:40;99156.84;;;10.23;100.00
10806;BME280;5455;53.224;6.000;2023-04-01T00:52:11;99152.94;;;10.21;100.00
10806;BME280;5455;53.224;6.000;2023-04-01T00:54:41;99148.59;;;10.23;100.00
10806;BME280;5455;53.224;6.000;2023-04-01T00:57:15;99150.94;;;10.25;100.00
10806;BME280;5455;53.224;6.000;2023-04-01T00:59:48;99156.84;;;10.23;100.00
10806;BME280;5455;53.224;6.000;2023-04-01T01:02:19;99151.34;;;10.23;100.00
10806;BME280;5455;53.224;6.000;2023-04-01T01:04:49;99152.94;;;10.21;100.00
10806;BME280;5455;53.224;6.000;2023-04-01T01:12:40;99150.97;;;10.21;100.00
10806;BME280;5455;53.224;6.000;2023-04-01T01:18:19;99160.38;;;10.24;100.00
10806;BME280;5455;53.224;6.000;2023-04-01T01:37:17;99174.94;;;10.24;100.00
10806;BME280;5455;53.224;6.000;2023-04-01T01:39:49;99170.19;;;10.25;100.00
10806;BME280;5455;53.224;6.000;2023-04-01T01:42:18;99178.88;;;10.23;100.00
10806;BME280;5455;53.224;6.000;2023-04-01T01:44:48;99173.38;;;10.23;100.00
10806;BME280;5455;53.224;6.000;2023-04-01T01:47:19;99178.09;;;10.23;100.00
10806;BME280;5455;53.224;6.000;2023-04-01T01:49:48;99173.38;;;10.23;100.00
10806;BME280;5455;53.224;6.000;2023-04-01T01:52:17;99178.88;;;10.23;100.00
10806;BME280;5455;53.224;6.000;2023-04-01T01:54:53;99178.88;;;10.27;100.00
10806;BME280;5455;53.224;6.000;2023-04-01T01:57:26;99178.09;;;10.26;100.00
10806;BME280;5455;53.224;6.000;2023-04-01T02:00:05;99182.41;;;10.27;100.00
10806;BME280;5455;53.224;6.000;2023-04-01T02:02:44;99184.38;;;10.23;100.00
10806;BME280;5455;53.224;6.000;2023-04-01T02:05:25;99187.94;;;10.24;100.00
10806;BME280;5455;53.224;6.000;2023-04-01T02:08:09;99191.06;;;10.26;100.00
10806;BME280;5455;53.224;6.000;2023-04-01T02:10:53;99199.31;;;10.26;100.00
10806;BME280;5455;53.224;6.000;2023-04-01T02:13:45;99201.28;;;10.25;100.00
10806;BME280;5455;53.224;6.000;2023-04-01T02:16:28;99195.41;;;10.27;100.00
10806;BME280;5455;53.224;6.000;2023-04-01T02:18:59;99202.09;;;10.26;100.00
10806;BME280;5455;53.224;6.000;2023-04-01T02:21:31;99205.63;;;10.26;100.00
10806;BME280;5455;53.224;6.000;2023-04-01T02:24:01;99206.78;;;10.29;100.00
10806;BME280;5455;53.224;6.000;2023-04-01T02:26:28;99216.66;;;10.26;100.00
10806;BME280;5455;53.224;6.000;2023-04-01T02:28:57;99212.31;;;10.25;100.00
10806;BME280;5455;53.224;6.000;2023-04-01T02:31:27;99211.94;;;10.23;100.00
10806;BME280;5455;53.224;6.000;2023-04-01T02:33:54;99209.19;;;10.23;100.00
10806;BME280;5455;53.224;6.000;2023-04-01T02:36:21;99216.66;;;10.23;100.00
10806;BME280;5455;53.224;6.000;2023-04-01T02:38:49;99217.44;;;10.23;100.00
10806;BME280;5455;53.224;6.000;2023-04-01T02:41:17;99218.59;;;10.26;100.00
10806;BME280;5455;53.224;6.000;2023-04-01T02:43:44;99223.75;;;10.24;100.00
10806;BME280;5455;53.224;6.000;2023-04-01T02:46:12;99218.59;;;10.22;100.00
10806;BME280;5455;53.224;6.000;2023-04-01T02:48:39;99219.03;;;10.21;100.00
10806;BME280;5455;53.224;6.000;2023-04-01T02:51:06;99228.06;;;10.21;100.00
10806;BME280;5455;53.224;6.000;2023-04-01T02:53:33;99223.31;;;10.22;100.00
10806;BME280;5455;53.224;6.000;2023-04-01T02:56:00;99231.22;;;10.27;100.00
10806;BME280;5455;53.224;6.000;2023-04-01T02:58:27;99236.31;;;10.25;100.00
10806;BME280;5455;53.224;6.000;2023-04-01T03:00:54;99233.97;;;10.23;100.00
10806;BME280;5455;53.224;6.000;2023-04-01T03:03:22;99242.22;;;10.23;100.00
10806;BME280;5455;53.224;6.000;2023-04-01T03:05:49;99245.78;;;10.24;100.00
10806;BME280;5455;53.224;6.000;2023-04-01T03:08:18;99242.22;;;10.23;100.00
10806;BME280;5455;53.224;6.000;2023-04-01T03:10:45;99244.97;;;10.20;100.00
10806;BME280;5455;53.224;6.000;2023-04-01T03:13:12;99249.31;;;10.21;100.00
10806;BME280;5455;53.224;6.000;2023-04-01T03:15:39;99246.16;;;10.19;100.00
10806;BME280;5455;53.224;6.000;2023-04-01T03:18:06;99246.56;;;10.17;100.00
10806;BME280;5455;53.224;6.000;2023-04-01T03:20:33;99259.16;;;10.15;100.00
10806;BME280;5455;53.224;6.000;2023-04-01T03:23:00;99264.66;;;10.15;100.00
10806;BME280;5455;53.224;6.000;2023-04-01T03:25:27;99259.53;;;10.17;100.00
10806;BME280;5455;53.224;6.000;2023-04-01T03:27:55;99267.41;;;10.15;100.00
10806;BME280;5455;53.224;6.000;2023-04-01T03:30:22;99265.84;;;10.17;100.00
10806;BME280;5455;53.224;6.000;2023-04-01T03:32:49;99265.47;;;10.15;100.00
10806;BME280;5455;53.224;6.000;2023-04-01T03:35:17;99255.56;;;10.07;100.00
10806;BME280;5455;53.224;6.000;2023-04-01T03:37:45;99285.13;;;10.17;100.00
10806;BME280;5455;53.224;6.000;2023-04-01T03:40:12;99274.47;;;10.16;100.00
10806;BME280;5455;53.224;6.000;2023-04-01T03:42:39;99287.06;;;10.13;100.00
10806;BME280;5455;53.224;6.000;2023-04-01T03:45:06;99283.91;;;10.11;100.00
10806;BME280;5455;53.224;6.000;2023-04-01T03:47:33;99283.91;;;10.11;100.00
10806;BME280;5455;53.224;6.000;2023-04-01T03:50:01;99285.88;;;10.11;100.00
10806;BME280;5455;53.224;6.000;2023-04-01T03:52:28;99288.63;;;10.07;100.00
10806;BME280;5455;53.224;6.000;2023-04-01T03:54:56;99291.38;;;10.11;100.00
10806;BME280;5455;53.224;6.000;2023-04-01T03:57:23;99292.97;;;10.12;100.00
10806;BME280;5455;53.224;6.000;2023-04-01T03:59:51;99298.06;;;10.10;100.00
10806;BME280;5455;53.224;6.000;2023-04-01T04:02:19;99299.63;;;10.07;100.00
10806;BME280;5455;53.224;6.000;2023-04-01T04:04:46;99300.81;;;10.10;100.00
10806;BME280;5455;53.224;6.000;2023-04-01T04:07:13;99302.41;;;10.11;100.00
10806;BME280;5455;53.224;6.000;2023-04-01T04:10:07;99298.09;;;10.13;100.00
10806;BME280;5455;53.224;6.000;2023-04-01T04:12:35;99315.00;;;10.12;100.00
10806;BME280;5455;53.224;6.000;2023-04-01T04:15:02;99301.22;;;10.12;100.00
10806;BME280;5455;53.224;6.000;2023-04-01T04:17:29;99312.25;;;10.12;100.00
10806;BME280;5455;53.224;6.000;2023-04-01T04:19:56;99311.44;;;10.11;100.00
10806;BME280;5455;53.224;6.000;2023-04-01T04:22:23;99311.03;;;10.13;100.00
10806;BME280;5455;53.224;6.000;2023-04-01T04:24:50;99313.78;;;10.13;100.00
10806;BME280;5455;53.224;6.000;2023-04-01T04:27:17;99323.25;;;10.12;100.00
10806;BME280;5455;53.224;6.000;2023-04-01T04:29:57;99324.41;;;10.11;100.00
10806;BME280;5455;53.224;6.000;2023-04-01T04:32:24;99325.22;;;10.11;100.00
10806;BME280;5455;53.224;6.000;2023-04-01T04:34:52;99329.19;;;10.14;100.00
10806;BME280;5455;53.224;6.000;2023-04-01T04:37:19;99330.31;;;10.13;100.00
10806;BME280;5455;53.224;6.000;2023-04-01T04:39:46;99334.66;;;10.10;100.00
10806;BME280;5455;53.224;6.000;2023-04-01T04:42:13;99341.34;;;10.09;100.00
10806;BME280;5455;53.224;6.000;2023-04-01T04:44:40;99342.53;;;10.08;100.00
10806;BME280;5455;53.224;6.000;2023-04-01T04:47:07;99344.09;;;10.09;100.00
10806;BME280;5455;53.224;6.000;2023-04-01T04:49:35;99351.59;;;10.12;100.00
10806;BME280;5455;53.224;6.000;2023-04-01T04:52:06;99361.81;;;10.12;100.00
10806;BME280;5455;53.224;6.000;2023-04-01T04:54:33;99358.63;;;10.10;100.00
10806;BME280;5455;53.224;6.000;2023-04-01T04:57:03;99364.56;;;10.12;100.00
10806;BME280;5455;53.224;6.000;2023-04-01T04:59:36;99361.38;;;10.10;100.00
10806;BME280;5455;53.224;6.000;2023-04-01T05:02:18;99371.63;;;10.13;100.00
10806;BME280;5455;53.224;6.000;2023-04-01T05:04:46;99372.41;;;10.10;100.00
10806;BME280;5455;53.224;6.000;2023-04-01T05:07:13;99382.69;;;10.16;100.00
10806;BME280;5455;53.224;6.000;2023-04-01T05:09:41;99379.13;;;10.12;100.00
10806;BME280;5455;53.224;6.000;2023-04-01T05:12:08;99384.63;;;10.12;100.00
10806;BME280;5455;53.224;6.000;2023-04-01T05:15:06;99385.84;;;10.15;100.00
10806;BME280;5455;53.224;6.000;2023-04-01T05:17:34;99381.09;;;10.12;100.00
10806;BME280;5455;53.224;6.000;2023-04-01T05:20:03;99388.97;;;10.17;100.00
10806;BME280;5455;53.224;6.000;2023-04-01T05:22:30;99388.59;;;10.15;100.00
10806;BME280;5455;53.224;6.000;2023-04-01T05:24:57;99396.84;;;10.15;100.00
10806;BME280;5455;53.224;6.000;2023-04-01T05:27:24;99397.66;;;10.15;100.00
10806;BME280;5455;53.224;6.000;2023-04-01T05:29:51;99398.81;;;10.14;100.00
10806;BME280;5455;53.224;6.000;2023-04-01T05:32:41;99412.16;;;10.12;100.00
10806;BME280;5455;53.224;6.000;2023-04-01T05:35:09;99410.19;;;10.13;100.00
10806;BME280;5455;53.224;6.000;2023-04-01T05:37:36;99412.94;;;10.13;100.00
10806;BME280;5455;53.224;6.000;2023-04-01T05:40:04;99416.91;;;10.15;100.00
10806;BME280;5455;53.224;6.000;2023-04-01T05:42:33;99414.13;;;10.12;100.00
10806;BME280;5455;53.224;6.000;2023-04-01T05:45:03;99413.38;;;10.15;100.00
10806;BME280;5455;53.224;6.000;2023-04-01T05:47:59;99426.69;;;10.13;100.00
10806;BME280;5455;53.224;6.000;2023-04-01T05:50:29;99424.34;;;10.11;100.00
10806;BME280;5455;53.224;6.000;2023-04-01T05:52:56;99427.47;;;10.10;100.00
10806;BME280;5455;53.224;6.000;2023-04-01T05:55:23;99432.22;;;10.13;100.00
10806;BME280;5455;53.224;6.000;2023-04-01T05:57:50;99441.66;;;10.12;100.00
10806;BME280;5455;53.224;6.000;2023-04-01T06:00:18;99444.41;;;10.12;100.00
10806;BME280;5455;53.224;6.000;2023-04-01T06:02:47;99448.38;;;10.14;100.00
10806;BME280;5455;53.224;6.000;2023-04-01T06:05:22;99446.03;;;10.16;100.00
10806;BME280;5455;53.224;6.000;2023-04-01T06:07:58;99449.97;;;10.19;100.00
10806;BME280;5455;53.224;6.000;2023-04-01T06:11:39;99452.34;;;10.20;100.00
10806;BME280;5455;53.224;6.000;2023-04-01T06:25:21;99483.41;;;10.28;100.00
10806;BME280;5455;53.224;6.000;2023-04-01T06:28:22;99485.00;;;10.29;100.00
10806;BME280;5455;53.224;6.000;2023-04-01T06:36:53;99498.78;;;10.39;100.00
10806;BME280;5455;53.224;6.000;2023-04-01T06:51:14;99520.84;;;10.43;100.00
10806;BME280;5455;53.224;6.000;2023-04-01T06:59:45;99527.53;;;10.45;100.00
10806;BME280;5455;53.224;6.000;2023-04-01T07:02:27;99529.50;;;10.48;100.00
10806;BME280;5455;53.224;6.000;2023-04-01T07:04:58;99535.03;;;10.48;100.00
10806;BME280;5455;53.224;6.000;2023-04-01T07:07:36;99540.16;;;10.54;100.00
10806;BME280;5455;53.224;6.000;2023-04-01T07:10:19;99544.50;;;10.62;100.00
10806;BME280;5455;53.224;6.000;2023-04-01T07:13:21;99547.28;;;10.69;100.00
10806;BME280;5455;53.224;6.000;2023-04-01T07:16:01;99548.88;;;10.80;100.00
10806;BME280;5455;53.224;6.000;2023-04-01T07:21:33;99562.66;;;10.94;100.00
10806;BME280;5455;53.224;6.000;2023-04-01T07:24:32;99569.38;;;10.93;100.00
10806;BME280;5455;53.224;6.000;2023-04-01T07:27:08;99574.50;;;11.05;100.00
10806;BME280;5455;53.224;6.000;2023-04-01T07:29:38;99580.41;;;11.07;100.00
10806;BME280;5455;53.224;6.000;2023-04-01T07:37:58;99592.22;;;11.19;100.00
10806;BME280;5455;53.224;6.000;2023-04-01T07:40:48;99596.19;;;11.25;100.00
10806;BME280;5455;53.224;6.000;2023-04-01T07:46:49;99606.44;;;11.28;100.00
10806;BME280;5455;53.224;6.000;2023-04-01T07:49:17;99612.34;;;11.47;100.00
10806;BME280;5455;53.224;6.000;2023-04-01T07:52:00;99617.88;;;11.40;100.00
10806;BME280;5455;53.224;6.000;2023-04-01T07:54:47;99617.47;;;11.31;100.00
10806;BME280;5455;53.224;6.000;2023-04-01T07:57:22;99623.34;;;11.12;100.00
10806;BME280;5455;53.224;6.000;2023-04-01T08:15:14;99652.91;;;11.01;100.00
10806;BME280;5455;53.224;6.000;2023-04-01T08:21:28;99671.81;;;10.95;100.00
10806;BME280;5455;53.224;6.000;2023-04-01T08:24:07;99663.91;;;10.97;100.00
10806;BME280;5455;53.224;6.000;2023-04-01T08:26:41;99673.41;;;10.96;100.00
10806;BME280;5455;53.224;6.000;2023-04-01T08:29:18;99685.59;;;11.06;100.00
10806;BME280;5455;53.224;6.000;2023-04-01T08:31:52;99686.44;;;11.28;100.00
10806;BME280;5455;53.224;6.000;2023-04-01T08:34:27;99688.44;;;11.41;100.00
10806;BME280;5455;53.224;6.000;2023-04-01T08:37:05;99701.47;;;11.62;100.00
10806;BME280;5455;53.224;6.000;2023-04-01T08:39:42;99707.41;;;11.89;100.00
10806;BME280;5455;53.224;6.000;2023-04-01T08:45:26;99706.63;;;11.85;100.00
10806;BME280;5455;53.224;6.000;2023-04-01T08:51:43;99723.19;;;12.13;100.00
10806;BME280;5455;53.224;6.000;2023-04-01T08:54:44;99734.22;;;12.17;100.00
10806;BME280;5455;53.224;6.000;2023-04-01T09:11:28;99744.84;;;11.69;100.00
10806;BME280;5455;53.224;6.000;2023-04-01T09:14:28;99758.22;;;11.42;100.00
10806;BME280;5455;53.224;6.000;2023-04-01T09:17:44;99761.81;;;11.67;100.00
10806;BME280;5455;53.224;6.000;2023-04-01T09:20:52;99762.97;;;11.66;100.00
10806;BME280;5455;53.224;6.000;2023-04-01T09:28:42;99777.88;;;11.19;100.00
10806;BME280;5455;53.224;6.000;2023-04-01T09:45:48;99797.28;;;11.51;100.00
10806;BME280;5455;53.224;6.000;2023-04-01T09:56:23;99832.84;;;11.70;100.00
10806;BME280;5455;53.224;6.000;2023-04-01T09:59:15;99821.06;;;11.98;100.00
10806;BME280;5455;53.224;6.000;2023-04-01T10:23:05;99872.75;;;12.08;100.00
10806;BME280;5455;53.224;6.000;2023-04-01T10:40:25;99894.31;;;11.56;100.00
10806;BME280;5455;53.224;6.000;2023-04-01T10:47:02;99904.19;;;11.61;100.00
10806;BME280;5455;53.224;6.000;2023-04-01T10:49:43;99915.72;;;11.74;100.00
10806;BME280;5455;53.224;6.000;2023-04-01T11:02:00;99915.34;;;11.82;100.00
10806;BME280;5455;53.224;6.000;2023-04-01T11:14:23;99946.88;;;11.74;100.00
10806;BME280;5455;53.224;6.000;2023-04-01T11:22:45;99970.88;;;11.67;100.00
10806;BME280;5455;53.224;6.000;2023-04-01T11:31:47;99982.72;;;11.05;100.00
10806;BME280;5455;53.224;6.000;2023-04-01T11:35:05;99980.75;;;11.06;100.00
10806;BME280;5455;53.224;6.000;2023-04-01T11:38:07;99993.09;;;11.23;100.00
10806;BME280;5455;53.224;6.000;2023-04-01T12:01:28;100032.34;;;11.60;100.00
10806;BME280;5455;53.224;6.000;2023-04-01T12:09:38;100051.66;;;11.53;100.00
10806;BME280;5455;53.224;6.000;2023-04-01T12:45:29;100115.44;;;11.41;100.00
10806;BME280;5455;53.224;6.000;2023-04-01T12:51:01;100114.25;;;11.42;100.00
10806;BME280;5455;53.224;6.000;2023-04-01T12:54:06;100122.84;;;11.26;100.00
10806;BME280;5455;53.224;6.000;2023-04-01T13:02:01;100140.69;;;11.43;100.00
10806;BME280;5455;53.224;6.000;2023-04-01T13:04:50;100154.38;;;11.29;100.00
10806;BME280;5455;53.224;6.000;2023-04-01T13:07:37;100156.06;;;11.40;100.00
10806;BME280;5455;53.224;6.000;2023-04-01T13:10:37;100152.63;;;11.10;100.00
10806;BME280;5455;53.224;6.000;2023-04-01T13:16:14;100167.91;;;11.00;100.00
10806;BME280;5455;53.224;6.000;2023-04-01T13:21:44;100177.97;;;11.23;100.00
10806;BME280;5455;53.224;6.000;2023-04-01T13:24:27;100175.06;;;11.08;100.00
10806;BME280;5455;53.224;6.000;2023-04-01T13:38:08;100215.84;;;10.89;100.00
10806;BME280;5455;53.224;6.000;2023-04-01T13:41:11;100201.91;;;10.45;100.00
10806;BME280;5455;53.224;6.000;2023-04-01T13:43:52;100206.34;;;10.53;100.00
10806;BME280;5455;53.224;6.000;2023-04-01T13:49:37;100217.66;;;10.44;100.00
10806;BME280;5455;53.224;6.000;2023-04-01T14:01:00;100239.66;;;10.41;100.00
10806;BME280;5455;53.224;6.000;2023-04-01T14:12:13;100267.22;;;10.15;100.00
10806;BME280;5455;53.224;6.000;2023-04-01T14:20:18;100290.97;;;10.00;100.00
10806;BME280;5455;53.224;6.000;2023-04-01T14:39:55;100332.22;;;9.55;100.00
10806;BME280;5455;53.224;6.000;2023-04-01T14:45:21;100338.13;;;9.76;100.00
10806;BME280;5455;53.224;6.000;2023-04-01T14:50:50;100344.78;;;9.52;100.00
10806;BME280;5455;53.224;6.000;2023-04-01T14:55:56;100352.88;;;9.64;100.00
10806;BME280;5455;53.224;6.000;2023-04-01T15:07:11;100373.16;;;9.37;100.00
10806;BME280;5455;53.224;6.000;2023-04-01T15:10:00;100380.69;;;9.21;100.00
10806;BME280;5455;53.224;6.000;2023-04-01T15:12:40;100389.22;;;9.16;100.00
10806;BME280;5455;53.224;6.000;2023-04-01T15:34:56;100437.44;;;8.94;100.00
10806;BME280;5455;53.224;6.000;2023-04-01T15:37:52;100451.66;;;8.80;100.00
10806;BME280;5455;53.224;6.000;2023-04-01T15:40:27;100453.88;;;8.75;100.00
10806;BME280;5455;53.224;6.000;2023-04-01T15:43:50;100454.34;;;8.61;100.00
10806;BME280;5455;53.224;6.000;2023-04-01T15:46:18;100462.22;;;8.63;100.00
10806;BME280;5455;53.224;6.000;2023-04-01T15:52:19;100464.25;;;8.66;100.00
10806;BME280;5455;53.224;6.000;2023-04-01T16:00:27;100496.44;;;8.50;100.00
10806;BME280;5455;53.224;6.000;2023-04-01T16:03:15;100501.47;;;8.48;100.00
10806;BME280;5455;53.224;6.000;2023-04-01T16:11:25;100520.78;;;8.36;100.00
10806;BME280;5455;53.224;6.000;2023-04-01T16:14:23;100532.41;;;8.29;100.00
10806;BME280;5455;53.224;6.000;2023-04-01T16:22:37;100544.03;;;8.38;100.00
10806;BME280;5455;53.224;6.000;2023-04-01T16:27:46;100561.00;;;8.28;100.00
10806;BME280;5455;53.224;6.000;2023-04-01T16:30:40;100567.88;;;8.22;100.00
10806;BME280;5455;53.224;6.000;2023-04-01T16:36:27;100575.13;;;8.02;100.00
10806;BME280;5455;53.224;6.000;2023-04-01T16:47:18;100606.38;;;7.98;100.00
10806;BME280;5455;53.224;6.000;2023-04-01T16:49:51;100605.47;;;7.94;100.00
10806;BME280;5455;53.224;6.000;2023-04-01T16:52:40;100602.31;;;7.80;100.00
10806;BME280;5455;53.224;6.000;2023-04-01T16:55:18;100617.16;;;7.78;100.00
10806;BME280;5455;53.224;6.000;2023-04-01T16:57:56;100611.69;;;7.78;100.00
10806;BME280;5455;53.224;6.000;2023-04-01T17:03:04;100631.56;;;7.75;100.00
10806;BME280;5455;53.224;6.000;2023-04-01T17:08:50;100648.16;;;7.67;100.00
10806;BME280;5455;53.224;6.000;2023-04-01T17:11:27;100649.09;;;7.71;100.00
10806;BME280;5455;53.224;6.000;2023-04-01T17:22:20;100675.59;;;7.67;100.00
10806;BME280;5455;53.224;6.000;2023-04-01T17:27:51;100678.94;;;7.60;100.00
10806;BME280;5455;53.224;6.000;2023-04-01T17:30:30;100695.84;;;7.50;100.00
10806;BME280;5455;53.224;6.000;2023-04-01T17:44:21;100741.41;;;7.31;100.00
10806;BME280;5455;53.224;6.000;2023-04-01T17:50:17;100744.66;;;7.12;100.00
10806;BME280;5455;53.224;6.000;2023-04-01T17:52:58;100750.38;;;7.07;100.00
10806;BME280;5455;53.224;6.000;2023-04-01T17:55:45;100760.88;;;7.05;100.00
10806;BME280;5455;53.224;6.000;2023-04-01T17:58:22;100766.50;;;7.08;100.00
10806;BME280;5455;53.224;6.000;2023-04-01T18:03:59;100783.28;;;7.07;100.00
10806;BME280;5455;53.224;6.000;2023-04-01T18:06:51;100780.66;;;7.10;100.00
10806;BME280;5455;53.224;6.000;2023-04-01T18:12:34;100798.81;;;7.15;100.00
10806;BME280;5455;53.224;6.000;2023-04-01T18:24:13;100828.41;;;7.09;100.00
10806;BME280;5455;53.224;6.000;2023-04-01T18:26:44;100841.66;;;7.07;100.00
10806;BME280;5455;53.224;6.000;2023-04-01T18:31:49;100847.59;;;7.09;100.00
10806;BME280;5455;53.224;6.000;2023-04-01T18:37:36;100871.88;;;6.99;100.00
10806;BME280;5455;53.224;6.000;2023-04-01T18:40:32;100874.19;;;6.88;100.00
10806;BME280;5455;53.224;6.000;2023-04-01T18:43:59;100886.63;;;6.86;100.00
10806;BME280;5455;53.224;6.000;2023-04-01T18:57:49;100912.72;;;6.92;100.00
10806;BME280;5455;53.224;6.000;2023-04-01T19:00:28;100923.81;;;6.95;100.00
10806;BME280;5455;53.224;6.000;2023-04-01T19:03:16;100927.06;;;6.89;100.00
10806;BME280;5455;53.224;6.000;2023-04-01T19:05:47;100931.34;;;6.78;100.00
10806;BME280;5455;53.224;6.000;2023-04-01T19:08:25;100936.34;;;6.76;100.00
10806;BME280;5455;53.224;6.000;2023-04-01T19:27:55;100985.59;;;6.55;100.00
10806;BME280;5455;53.224;6.000;2023-04-01T19:36:37;101007.66;;;6.58;100.00
10806;BME280;5455;53.224;6.000;2023-04-01T19:38:48;101011.06;;;6.55;100.00
10806;BME280;5455;53.224;6.000;2023-04-01T19:55:03;101047.50;;;6.47;100.00
10806;BME280;5455;53.224;6.000;2023-04-01T19:57:50;101058.00;;;6.45;100.00
10806;BME280;5455;53.224;6.000;2023-04-01T20:00:31;101067.00;;;6.37;100.00
10806;BME280;5455;53.224;6.000;2023-04-01T20:03:15;101069.63;;;6.34;100.00
10806;BME280;5455;53.224;6.000;2023-04-01T20:11:26;101090.88;;;6.20;100.00
10806;BME280;5455;53.224;6.000;2023-04-01T20:19:24;101105.72;;;6.19;100.00
10806;BME280;5455;53.224;6.000;2023-04-01T20:21:56;101112.31;;;6.18;100.00
10806;BME280;5455;53.224;6.000;2023-04-01T20:24:41;101118.09;;;6.16;100.00
10806;BME280;5455;53.224;6.000;2023-04-01T20:27:17;101115.34;;;6.16;100.00
10806;BME280;5455;53.224;6.000;2023-04-01T20:30:19;101126.28;;;6.16;100.00
10806;BME280;5455;53.224;6.000;2023-04-01T20:33:01;101132.09;;;6.15;100.00
10806;BME280;5455;53.224;6.000;2023-04-01T20:35:51;101135.50;;;6.12;100.00
10806;BME280;5455;53.224;6.000;2023-04-01T20:41:34;101140.97;;;6.12;100.00
10806;BME280;5455;53.224;6.000;2023-04-01T20:44:12;101146.44;;;6.12;100.00
10806;BME280;5455;53.224;6.000;2023-04-01T20:50:07;101161.88;;;6.07;100.00
10806;BME280;5455;53.224;6.000;2023-04-01T20:52:41;101168.50;;;6.06;100.00
10806;BME280;5455;53.224;6.000;2023-04-01T21:00:55;101176.72;;;6.06;100.00
10806;BME280;5455;53.224;6.000;2023-04-01T21:03:42;101185.72;;;6.07;100.00
10806;BME280;5455;53.224;6.000;2023-04-01T21:14:50;101207.47;;;6.03;100.00
10806;BME280;5455;53.224;6.000;2023-04-01T21:17:53;101212.75;;;6.00;100.00
10806;BME280;5455;53.224;6.000;2023-04-01T21:20:54;101215.97;;;6.02;100.00
10806;BME280;5455;53.224;6.000;2023-04-01T21:34:55;101252.13;;;5.82;100.00
10806;BME280;5455;53.224;6.000;2023-04-01T21:38:00;101253.56;;;5.79;100.00
10806;BME280;5455;53.224;6.000;2023-04-01T21:40:50;101257.25;;;5.75;100.00
10806;BME280;5455;53.224;6.000;2023-04-01T21:54:27;101290.88;;;5.75;100.00
10806;BME280;5455;53.224;6.000;2023-04-01T21:57:17;101301.66;;;5.72;100.00
10806;BME280;5455;53.224;6.000;2023-04-01T22:00:09;101305.81;;;5.69;100.00
10806;BME280;5455;53.224;6.000;2023-04-01T22:03:08;101310.00;;;5.67;100.00
10806;BME280;5455;53.224;6.000;2023-04-01T22:11:43;101322.50;;;5.59;100.00
10806;BME280;5455;53.224;6.000;2023-04-01T22:14:16;101332.19;;;5.65;100.00
10806;BME280;5455;53.224;6.000;2023-04-01T22:30:19;101352.28;;;5.38;100.00
10806;BME280;5455;53.224;6.000;2023-04-01T22:35:46;101360.06;;;5.45;100.00
10806;BME280;5455;53.224;6.000;2023-04-01T22:52:25;101380.59;;;5.34;100.00
10806;BME280;5455;53.224;6.000;2023-04-01T22:55:00;101380.41;;;5.30;100.00
10806;BME280;5455;53.224;6.000;2023-04-01T22:57:41;101391.94;;;5.27;100.00
10806;BME280;5455;53.224;6.000;2023-04-01T23:00:20;101395.91;;;5.21;100.00
10806;BME280;5455;53.224;6.000;2023-04-01T23:03:22;101399.41;;;5.13;100.00
10806;BME280;5455;53.224;6.000;2023-04-01T23:05:56;101399.81;;;5.07;100.00
10806;BME280;5455;53.224;6.000;2023-04-01T23:11:15;101406.25;;;4.88;100.00
10806;BME280;5455;53.224;6.000;2023-04-01T23:13:48;101423.38;;;4.80;100.00
10806;BME280;5455;53.224;6.000;2023-04-01T23:16:32;101426.41;;;4.79;100.00
10806;BME280;5455;53.224;6.000;2023-04-01T23:19:15;101432.47;;;4.76;100.00
10806;BME280;5455;53.224;6.000;2023-04-01T23:21:49;101440.25;;;4.69;100.00
10806;BME280;5455;53.224;6.000;2023-04-01T23:27:17;101446.56;;;4.56;100.00
10806;BME280;5455;53.224;6.000;2023-04-01T23:29:46;101449.06;;;4.52;100.00
10806;BME280;5455;53.224;6.000;2023-04-01T23:32:18;101464.16;;;4.50;100.00
10806;BME280;5455;53.224;6.000;2023-04-01T23:34:49;101467.28;;;4.43;100.00
10806;BME280;5455;53.224;6.000;2023-04-01T23:37:17;101468.00;;;4.35;100.00
10806;BME280;5455;53.224;6.000;2023-04-01T23:39:48;101479.41;;;4.23;100.00
10806;BME280;5455;53.224;6.000;2023-04-01T23:42:23;101479.47;;;4.18;100.00
10806;BME280;5455;53.224;6.000;2023-04-01T23:44:57;101492.19;;;4.09;100.00
10806;BME280;5455;53.224;6.000;2023-04-01T23:47:30;101491.78;;;4.02;100.00
10806;BME280;5455;53.224;6.000;2023-04-01T23:50:01;101501.34;;;4.00;100.00
10806;BME280;5455;53.224;6.000;2023-04-01T23:52:35;101500.63;;;3.94;100.00